createdAt,value
2017-10-06T00:00:26.087Z,12.90
2017-10-06T00:02:55.158Z,12.40
2017-10-06T00:05:24.860Z,11.90
2017-10-06T00:07:54.329Z,12.30
2017-10-06T00:10:24.297Z,12.60
2017-10-06T00:12:53.817Z,12.50
2017-10-06T00:15:23.196Z,13.10
2017-10-06T00:17:52.488Z,12.70
2017-10-06T00:20:23.404Z,12.50
2017-10-06T00:22:53.470Z,13.10
2017-10-06T00:25:22.865Z,12.80
2017-10-06T00:27:52.134Z,13.00
2017-10-06T00:30:21.387Z,13.30
2017-10-06T00:32:50.756Z,13.30
2017-10-06T00:35:20.903Z,14.50
2017-10-06T00:37:51.816Z,13.70
2017-10-06T00:40:21.238Z,13.60
2017-10-06T00:42:51.056Z,14.00
2017-10-06T00:45:20.578Z,13.70
2017-10-06T00:47:50.533Z,13.00
2017-10-06T00:50:19.901Z,12.50
2017-10-06T00:52:49.349Z,12.90
2017-10-06T00:55:18.463Z,12.60
2017-10-06T00:57:47.667Z,14.30
2017-10-06T01:00:17.086Z,14.10
2017-10-06T01:02:46.321Z,15.70
2017-10-06T01:05:16.235Z,16.50
2017-10-06T01:07:46.404Z,14.50
2017-10-06T01:10:15.752Z,17.50
2017-10-06T01:12:45.866Z,19.30
2017-10-06T01:15:15.894Z,19.10
2017-10-06T01:17:45.592Z,19.00
2017-10-06T01:20:14.892Z,19.90
2017-10-06T01:22:43.893Z,19.80
2017-10-06T01:25:15.079Z,20.20
2017-10-06T01:27:44.591Z,20.10
2017-10-06T01:30:14.860Z,21.10
2017-10-06T01:32:45.677Z,21.10
2017-10-06T01:35:15.149Z,21.10
2017-10-06T01:37:44.415Z,21.40
2017-10-06T01:40:14.806Z,22.70
2017-10-06T01:42:45.171Z,22.60
2017-10-06T01:45:15.349Z,23.60
2017-10-06T01:47:44.654Z,23.10
2017-10-06T01:50:14.608Z,24.20
2017-10-06T01:52:43.902Z,24.00
2017-10-06T01:55:13.914Z,24.90
2017-10-06T01:57:43.176Z,24.80
2017-10-06T02:00:12.435Z,25.00
2017-10-06T02:02:41.675Z,25.20
2017-10-06T02:05:11.501Z,25.40
2017-10-06T02:07:40.692Z,25.60
2017-10-06T02:10:09.942Z,26.10
2017-10-06T02:12:39.285Z,26.40
2017-10-06T02:15:08.792Z,27.00
2017-10-06T02:17:38.251Z,27.10
2017-10-06T02:20:07.832Z,25.90
2017-10-06T02:22:37.846Z,26.10
2017-10-06T02:25:07.186Z,26.90
2017-10-06T02:27:37.562Z,28.10
2017-10-06T02:30:06.999Z,29.10
2017-10-06T02:32:36.654Z,29.00
2017-10-06T02:35:07.414Z,29.00
2017-10-06T02:37:37.160Z,28.30
2017-10-06T02:40:07.382Z,27.80
2017-10-06T02:42:36.993Z,27.70
2017-10-06T02:45:07.596Z,29.50
2017-10-06T02:47:36.837Z,29.40
2017-10-06T02:50:06.210Z,29.90
2017-10-06T02:52:36.941Z,30.70
2017-10-06T02:55:06.375Z,30.60
2017-10-06T02:57:35.635Z,30.30
2017-10-06T03:00:05.158Z,30.00
2017-10-06T03:02:34.896Z,31.70
2017-10-06T03:05:04.442Z,31.60
2017-10-06T03:07:33.752Z,31.50
2017-10-06T03:10:02.959Z,31.80
2017-10-06T03:12:32.337Z,32.00
2017-10-06T03:15:01.616Z,32.90
2017-10-06T03:17:30.902Z,32.90
2017-10-06T03:20:00.144Z,32.90
2017-10-06T03:22:29.603Z,32.80
2017-10-06T03:24:58.997Z,34.00
2017-10-06T03:27:28.635Z,34.40
2017-10-06T03:30:00.051Z,34.30
2017-10-06T03:32:29.628Z,34.10
2017-10-06T03:34:58.916Z,35.20
2017-10-06T03:37:28.952Z,35.30
2017-10-06T03:39:59.167Z,36.00
2017-10-06T03:42:28.553Z,35.80
2017-10-06T03:44:59.163Z,33.50
2017-10-06T03:47:28.676Z,33.50
2017-10-06T03:49:57.894Z,35.80
2017-10-06T03:52:29.095Z,37.20
2017-10-06T03:54:58.310Z,37.70
2017-10-06T03:57:27.580Z,38.50
2017-10-06T03:59:57.051Z,38.60
2017-10-06T04:02:26.287Z,39.40
2017-10-06T04:04:55.637Z,38.10
2017-10-06T04:07:24.853Z,37.50
2017-10-06T04:09:54.091Z,37.70
2017-10-06T04:12:23.341Z,38.40
2017-10-06T04:14:52.524Z,38.20
2017-10-06T04:17:21.945Z,38.50
2017-10-06T04:19:51.536Z,38.80
2017-10-06T04:22:21.058Z,39.30
2017-10-06T04:24:50.247Z,39.00
2017-10-06T04:27:19.554Z,39.40
2017-10-06T04:29:51.088Z,39.50
2017-10-06T04:32:21.314Z,40.20
2017-10-06T04:34:50.343Z,40.50
2017-10-06T04:37:19.184Z,40.90
2017-10-06T04:39:47.862Z,40.70
2017-10-06T04:42:16.941Z,41.70
2017-10-06T04:44:45.733Z,41.60
2017-10-06T04:47:14.477Z,41.00
2017-10-06T04:49:43.707Z,41.30
2017-10-06T04:52:12.449Z,41.40
2017-10-06T04:54:42.056Z,41.40
2017-10-06T04:57:10.738Z,40.50
2017-10-06T04:59:39.657Z,42.30
2017-10-06T05:02:08.398Z,41.80
2017-10-06T05:04:37.113Z,43.50
2017-10-06T05:07:06.073Z,43.50
2017-10-06T05:09:35.370Z,43.10
2017-10-06T05:12:04.700Z,44.50
2017-10-06T05:14:33.389Z,45.20
2017-10-06T05:17:02.645Z,44.70
2017-10-06T05:19:31.780Z,45.40
2017-10-06T05:22:01.430Z,45.80
2017-10-06T05:24:31.806Z,47.80
2017-10-06T05:27:01.064Z,47.80
2017-10-06T05:29:30.519Z,49.00
2017-10-06T05:31:59.981Z,48.90
2017-10-06T05:34:30.983Z,49.70
2017-10-06T05:37:00.429Z,49.20
2017-10-06T05:39:29.704Z,49.50
2017-10-06T05:41:59.185Z,49.30
2017-10-06T05:44:28.640Z,49.30
2017-10-06T05:46:57.976Z,50.30
2017-10-06T05:49:27.658Z,49.60
2017-10-06T05:51:57.058Z,49.60
2017-10-06T05:54:26.531Z,50.00
2017-10-06T05:56:56.171Z,49.70
2017-10-06T05:59:25.655Z,50.00
2017-10-06T06:01:54.828Z,50.30
2017-10-06T06:04:24.805Z,50.70
2017-10-06T06:06:53.882Z,51.20
2017-10-06T06:09:23.085Z,51.30
2017-10-06T06:11:52.702Z,52.00
2017-10-06T06:14:24.305Z,51.60
2017-10-06T06:16:53.776Z,52.00
2017-10-06T06:19:23.020Z,52.10
2017-10-06T06:21:53.223Z,51.60
2017-10-06T06:24:22.628Z,51.50
2017-10-06T06:26:52.017Z,51.70
2017-10-06T06:29:21.620Z,51.80
2017-10-06T06:31:51.401Z,51.60
2017-10-06T06:34:20.741Z,51.30
2017-10-06T06:36:51.109Z,50.90
2017-10-06T06:39:20.550Z,51.50
2017-10-06T06:41:49.861Z,51.90
2017-10-06T06:44:19.845Z,52.10
2017-10-06T06:46:49.555Z,52.40
2017-10-06T06:49:19.324Z,52.30
2017-10-06T06:51:49.003Z,52.10
2017-10-06T06:54:18.166Z,52.80
2017-10-06T06:56:48.478Z,53.10
2017-10-06T06:59:17.891Z,53.10
2017-10-06T07:01:47.541Z,54.20
2017-10-06T07:04:17.089Z,54.80
2017-10-06T07:06:47.343Z,55.60
2017-10-06T07:09:16.851Z,55.50
2017-10-06T07:11:46.019Z,55.40
2017-10-06T07:14:16.335Z,56.30
2017-10-06T07:16:45.966Z,56.10
2017-10-06T07:19:15.858Z,56.10
2017-10-06T07:21:45.415Z,56.30
2017-10-06T07:24:14.756Z,57.30
2017-10-06T07:26:44.405Z,57.10
2017-10-06T07:29:14.134Z,57.50
2017-10-06T07:31:43.653Z,57.50
2017-10-06T07:34:13.424Z,57.90
2017-10-06T07:36:43.697Z,57.80
2017-10-06T07:39:13.808Z,57.40
2017-10-06T07:41:43.108Z,57.50
2017-10-06T07:44:12.663Z,57.50
2017-10-06T07:46:42.734Z,58.40
2017-10-06T07:49:11.950Z,58.30
2017-10-06T07:51:41.221Z,58.00
2017-10-06T07:54:10.467Z,57.70
2017-10-06T07:56:40.632Z,58.50
2017-10-06T07:59:10.360Z,58.60
2017-10-06T08:01:41.844Z,58.20
2017-10-06T08:04:14.262Z,59.20
2017-10-06T08:06:43.766Z,60.20
2017-10-06T08:09:13.455Z,60.00
2017-10-06T08:11:43.891Z,60.20
2017-10-06T08:14:13.285Z,60.00
2017-10-06T08:16:43.449Z,59.80
2017-10-06T08:19:12.966Z,59.80
2017-10-06T08:21:42.409Z,60.10
2017-10-06T08:24:12.646Z,60.00
2017-10-06T08:26:42.088Z,60.30
2017-10-06T08:29:11.838Z,59.90
2017-10-06T08:31:41.341Z,60.00
2017-10-06T08:34:10.976Z,59.80
2017-10-06T08:36:40.701Z,60.80
2017-10-06T08:39:10.068Z,61.60
2017-10-06T08:41:40.404Z,61.80
2017-10-06T08:44:09.941Z,62.20
2017-10-06T08:46:39.556Z,64.00
2017-10-06T08:49:09.146Z,64.50
2017-10-06T08:51:38.733Z,64.50
2017-10-06T08:54:08.051Z,64.30
2017-10-06T08:56:37.777Z,64.30
2017-10-06T08:59:07.309Z,63.60
2017-10-06T09:01:36.805Z,63.60
2017-10-06T09:04:06.345Z,62.60
2017-10-06T09:06:35.855Z,62.20
2017-10-06T09:09:05.547Z,63.30
2017-10-06T09:11:34.934Z,62.60
2017-10-06T09:14:04.129Z,62.80
2017-10-06T09:16:33.652Z,63.90
2017-10-06T09:19:03.174Z,64.30
2017-10-06T09:21:33.380Z,63.40
2017-10-06T09:24:02.816Z,64.00
2017-10-06T09:26:32.450Z,64.20
2017-10-06T09:29:02.000Z,64.00
2017-10-06T09:31:31.729Z,64.30
2017-10-06T09:34:00.931Z,64.30
2017-10-06T09:36:30.508Z,64.80
2017-10-06T09:38:59.494Z,65.20
2017-10-06T09:41:29.284Z,65.00
2017-10-06T09:43:59.673Z,65.40
2017-10-06T09:46:29.554Z,65.00
2017-10-06T09:48:59.154Z,64.60
2017-10-06T09:51:28.758Z,65.10
2017-10-06T09:53:57.969Z,65.90
2017-10-06T09:56:27.371Z,65.70
2017-10-06T09:58:56.811Z,65.50
2017-10-06T10:01:26.744Z,65.00
2017-10-06T10:03:56.130Z,64.80
2017-10-06T10:06:25.789Z,65.10
2017-10-06T10:08:55.316Z,65.50
2017-10-06T10:11:25.454Z,66.20
2017-10-06T10:13:55.670Z,66.10
2017-10-06T10:16:26.080Z,65.70
2017-10-06T10:18:55.351Z,65.60
2017-10-06T10:21:25.009Z,65.80
2017-10-06T10:23:54.415Z,65.40
2017-10-06T10:26:24.914Z,65.50
2017-10-06T10:28:54.608Z,65.40
2017-10-06T10:31:24.172Z,65.60
2017-10-06T10:33:53.982Z,65.60
2017-10-06T10:36:23.508Z,65.80
2017-10-06T10:38:53.169Z,65.00
2017-10-06T10:41:24.426Z,65.20
2017-10-06T10:43:53.717Z,65.10
2017-10-06T10:46:24.029Z,66.20
2017-10-06T10:48:53.457Z,67.80
2017-10-06T10:51:22.891Z,67.50
2017-10-06T10:53:52.310Z,67.40
2017-10-06T10:56:21.912Z,67.20
2017-10-06T10:58:51.534Z,66.70
2017-10-06T11:01:20.952Z,66.70
2017-10-06T11:03:50.425Z,66.50
2017-10-06T11:06:20.109Z,66.80
2017-10-06T11:08:49.703Z,66.90
2017-10-06T11:11:19.209Z,66.40
2017-10-06T11:13:49.334Z,66.20
2017-10-06T11:16:19.612Z,66.70
2017-10-06T11:18:49.107Z,66.50
2017-10-06T11:21:18.602Z,67.10
2017-10-06T11:23:48.039Z,68.20
2017-10-06T11:26:17.723Z,68.10
2017-10-06T11:28:46.952Z,67.40
2017-10-06T11:31:16.396Z,67.30
2017-10-06T11:33:46.129Z,67.70
2017-10-06T11:36:15.525Z,67.00
2017-10-06T11:38:45.932Z,66.60
2017-10-06T11:41:15.616Z,67.30
2017-10-06T11:43:45.219Z,67.40
2017-10-06T11:46:14.521Z,67.30
2017-10-06T11:48:44.972Z,67.60
2017-10-06T11:51:14.865Z,67.40
2017-10-06T11:53:44.458Z,67.20
2017-10-06T11:56:14.383Z,67.70
2017-10-06T11:58:44.409Z,69.60
2017-10-06T12:01:14.059Z,71.10
2017-10-06T12:03:43.268Z,71.20
2017-10-06T12:06:12.585Z,70.70
2017-10-06T12:08:41.988Z,70.30
2017-10-06T12:11:11.342Z,70.10
2017-10-06T12:13:40.867Z,70.10
2017-10-06T12:16:11.374Z,71.00
2017-10-06T12:18:40.702Z,72.30
2017-10-06T12:21:10.255Z,72.30
2017-10-06T12:23:39.904Z,72.10
2017-10-06T12:26:09.508Z,72.40
2017-10-06T12:28:39.535Z,72.60
2017-10-06T12:31:08.992Z,72.60
2017-10-06T12:33:38.395Z,72.70
2017-10-06T12:36:07.811Z,73.00
2017-10-06T12:38:37.381Z,73.40
2017-10-06T12:41:06.548Z,73.40
2017-10-06T12:43:36.809Z,72.80
2017-10-06T12:46:06.237Z,72.70
2017-10-06T12:48:37.710Z,72.40
2017-10-06T12:51:08.424Z,72.40
2017-10-06T12:53:38.196Z,72.30
2017-10-06T12:56:07.610Z,72.10
2017-10-06T12:58:37.003Z,71.90
2017-10-06T13:01:06.534Z,71.50
2017-10-06T13:03:35.815Z,71.70
2017-10-06T13:06:05.245Z,72.30
2017-10-06T13:08:35.204Z,73.30
2017-10-06T13:11:06.172Z,73.60
2017-10-06T13:13:35.782Z,73.60
2017-10-06T13:16:05.388Z,74.40
2017-10-06T13:18:34.877Z,73.60
2017-10-06T13:21:04.291Z,74.10
2017-10-06T13:23:34.332Z,74.40
2017-10-06T13:26:03.621Z,74.30
2017-10-06T13:28:33.001Z,74.00
2017-10-06T13:31:02.617Z,73.90
2017-10-06T13:33:32.230Z,73.90
2017-10-06T13:36:01.599Z,74.30
2017-10-06T13:38:31.896Z,76.10
2017-10-06T13:41:01.505Z,76.10
2017-10-06T13:43:30.803Z,76.60
2017-10-06T13:46:00.305Z,76.60
2017-10-06T13:48:30.017Z,76.40
2017-10-06T13:51:00.315Z,76.10
2017-10-06T13:53:30.473Z,76.00
2017-10-06T13:56:00.835Z,75.80
2017-10-06T13:58:30.355Z,75.70
2017-10-06T14:01:01.228Z,75.30
2017-10-06T14:03:31.385Z,74.80
2017-10-06T14:06:01.073Z,74.80
2017-10-06T14:08:30.717Z,75.30
2017-10-06T14:11:00.197Z,76.30
2017-10-06T14:13:30.562Z,76.40
2017-10-06T14:15:59.833Z,76.50
2017-10-06T14:18:29.303Z,76.10
2017-10-06T14:20:59.710Z,75.10
2017-10-06T14:23:29.181Z,75.00
2017-10-06T14:25:58.856Z,75.50
2017-10-06T14:28:28.253Z,77.00
2017-10-06T14:30:57.738Z,78.00
2017-10-06T14:33:27.321Z,78.60
2017-10-06T14:35:57.016Z,78.80
2017-10-06T14:38:26.515Z,78.70
2017-10-06T14:40:55.736Z,78.10
2017-10-06T14:43:25.230Z,78.40
2017-10-06T14:45:54.883Z,78.80
2017-10-06T14:48:24.199Z,78.50
2017-10-06T14:50:53.328Z,78.50
2017-10-06T14:53:22.813Z,78.40
2017-10-06T14:55:54.129Z,77.70
2017-10-06T14:58:23.747Z,77.60
2017-10-06T15:00:53.505Z,76.60
2017-10-06T15:03:23.037Z,75.70
2017-10-06T15:05:52.715Z,74.60
2017-10-06T15:08:22.099Z,74.50
2017-10-06T15:10:51.765Z,73.80
2017-10-06T15:13:21.206Z,73.60
2017-10-06T15:15:50.330Z,74.00
2017-10-06T15:18:19.804Z,74.20
2017-10-06T15:20:49.072Z,73.00
2017-10-06T15:23:18.469Z,70.20
2017-10-06T15:25:47.621Z,70.00
2017-10-06T15:28:16.706Z,68.10
2017-10-06T15:30:46.589Z,66.00
2017-10-06T15:33:15.967Z,65.90
2017-10-06T15:35:45.162Z,65.50
2017-10-06T15:38:14.705Z,64.60
2017-10-06T15:40:44.217Z,63.30
2017-10-06T15:43:14.551Z,57.70
2017-10-06T15:45:43.802Z,57.80
2017-10-06T15:48:13.289Z,56.30
2017-10-06T15:50:42.656Z,54.30
2017-10-06T15:53:12.061Z,52.10
2017-10-06T15:55:41.763Z,51.60
2017-10-06T15:58:12.165Z,50.30
2017-10-06T16:00:41.839Z,49.90
2017-10-06T16:03:12.418Z,48.10
2017-10-06T16:05:42.004Z,46.70
2017-10-06T16:08:11.597Z,42.60
2017-10-06T16:10:41.179Z,40.40
2017-10-06T16:13:10.821Z,41.00
2017-10-06T16:15:40.203Z,40.00
2017-10-06T16:18:09.497Z,40.00
2017-10-06T16:20:38.740Z,40.50
2017-10-06T16:23:08.068Z,38.20
2017-10-06T16:25:37.443Z,39.40
2017-10-06T16:28:06.617Z,37.80
2017-10-06T16:30:36.155Z,39.60
2017-10-06T16:33:05.659Z,39.00
2017-10-06T16:35:34.981Z,38.60
2017-10-06T16:38:04.039Z,38.20
2017-10-06T16:40:33.582Z,37.90
2017-10-06T16:43:02.778Z,38.70
2017-10-06T16:45:32.040Z,39.80
2017-10-06T16:48:01.419Z,40.20
2017-10-06T16:50:30.838Z,40.40
2017-10-06T16:53:00.365Z,40.80
2017-10-06T16:55:29.626Z,42.20
2017-10-06T16:58:01.296Z,40.60
2017-10-06T17:00:31.055Z,37.30
2017-10-06T17:03:00.519Z,39.40
2017-10-06T17:05:29.760Z,37.90
2017-10-06T17:07:58.866Z,38.00
2017-10-06T17:10:28.981Z,37.50
2017-10-06T17:12:58.355Z,36.80
2017-10-06T17:15:27.619Z,35.30
2017-10-06T17:17:57.025Z,37.30
2017-10-06T17:20:26.521Z,37.20
2017-10-06T17:22:55.753Z,37.10
2017-10-06T17:25:25.802Z,36.30
2017-10-06T17:27:54.986Z,36.20
2017-10-06T17:30:24.520Z,36.00
2017-10-06T17:32:54.190Z,36.30
2017-10-06T17:35:23.660Z,34.90
2017-10-06T17:37:52.560Z,34.10
2017-10-06T17:40:23.516Z,34.70
2017-10-06T17:42:52.628Z,35.90
2017-10-06T17:45:22.147Z,33.60
2017-10-06T17:47:51.229Z,34.80
2017-10-06T17:50:20.528Z,34.40
2017-10-06T17:52:50.141Z,36.00
2017-10-06T17:55:19.577Z,37.40
2017-10-06T17:57:49.583Z,38.40
2017-10-06T18:00:19.154Z,38.30
2017-10-06T18:02:49.535Z,36.70
2017-10-06T18:05:18.909Z,38.00
2017-10-06T18:07:48.603Z,38.10
2017-10-06T18:10:17.976Z,37.20
2017-10-06T18:12:47.579Z,36.00
2017-10-06T18:15:17.234Z,35.40
2017-10-06T18:17:46.329Z,36.20
2017-10-06T18:20:15.523Z,36.10
2017-10-06T18:22:44.745Z,36.00
2017-10-06T18:25:14.991Z,35.80
2017-10-06T18:27:44.470Z,35.80
2017-10-06T18:30:14.391Z,36.00
2017-10-06T18:32:44.784Z,38.40
2017-10-06T18:35:14.129Z,38.20
2017-10-06T18:37:43.703Z,36.80
2017-10-06T18:40:13.905Z,38.00
2017-10-06T18:42:43.217Z,35.40
2017-10-06T18:45:12.305Z,35.10
2017-10-06T18:47:41.537Z,35.20
2017-10-06T18:50:10.996Z,33.90
2017-10-06T18:52:40.321Z,32.00
2017-10-06T18:55:09.690Z,32.60
2017-10-06T18:57:39.022Z,31.00
2017-10-06T19:00:09.882Z,32.20
2017-10-06T19:02:39.214Z,32.50
2017-10-06T19:05:09.614Z,32.50
2017-10-06T19:07:39.700Z,31.40
2017-10-06T19:10:08.891Z,31.30
2017-10-06T19:12:38.371Z,33.50
2017-10-06T19:15:07.468Z,33.20
2017-10-06T19:17:37.068Z,33.80
2017-10-06T19:20:06.371Z,31.60
2017-10-06T19:22:36.955Z,32.50
2017-10-06T19:25:06.557Z,32.50
2017-10-06T19:27:35.735Z,32.00
2017-10-06T19:30:04.939Z,32.90
2017-10-06T19:32:34.742Z,30.80
2017-10-06T19:35:03.868Z,31.70
2017-10-06T19:37:33.422Z,31.00
2017-10-06T19:40:02.836Z,31.00
2017-10-06T19:42:32.486Z,29.80
2017-10-06T19:45:01.807Z,30.20
2017-10-06T19:47:31.810Z,29.90
2017-10-06T19:50:01.521Z,27.50
2017-10-06T19:52:30.738Z,25.50
2017-10-06T19:55:00.407Z,27.20
2017-10-06T19:57:30.934Z,26.10
2017-10-06T20:00:00.446Z,25.70
2017-10-06T20:02:30.355Z,26.10
2017-10-06T20:04:59.667Z,25.40
2017-10-06T20:07:29.706Z,24.60
2017-10-06T20:09:59.736Z,26.10
2017-10-06T20:12:29.105Z,26.10
2017-10-06T20:14:58.665Z,26.90
2017-10-06T20:17:28.097Z,25.30
2017-10-06T20:19:57.469Z,26.90
2017-10-06T20:22:26.859Z,26.50
2017-10-06T20:24:56.000Z,26.30
2017-10-06T20:27:25.249Z,24.80
2017-10-06T20:29:54.820Z,25.60
2017-10-06T20:32:25.437Z,26.20
2017-10-06T20:34:54.675Z,25.60
2017-10-06T20:37:24.431Z,26.30
2017-10-06T20:39:53.893Z,25.30
2017-10-06T20:42:23.310Z,25.50
2017-10-06T20:44:53.565Z,26.40
2017-10-06T20:47:22.844Z,26.30
2017-10-06T20:49:52.206Z,25.40
2017-10-06T20:52:21.510Z,25.20
2017-10-06T20:54:50.673Z,24.70
2017-10-06T20:57:19.877Z,25.50
2017-10-06T20:59:49.177Z,24.40
2017-10-06T21:02:18.415Z,24.50
2017-10-06T21:04:47.582Z,23.90
2017-10-06T21:07:16.810Z,23.60
2017-10-06T21:09:47.196Z,24.20
2017-10-06T21:12:16.623Z,23.10
2017-10-06T21:14:46.019Z,24.60
2017-10-06T21:17:15.318Z,22.60
2017-10-06T21:19:45.425Z,23.80
2017-10-06T21:22:14.523Z,23.60
2017-10-06T21:24:43.829Z,23.70
2017-10-06T21:27:13.007Z,23.30
2017-10-06T21:29:42.318Z,24.00
2017-10-06T21:32:11.591Z,24.50
2017-10-06T21:34:41.061Z,23.60
2017-10-06T21:37:10.250Z,24.30
2017-10-06T21:39:39.641Z,23.60
2017-10-06T21:42:08.883Z,22.30
2017-10-06T21:44:38.277Z,23.30
2017-10-06T21:47:08.398Z,24.00
2017-10-06T21:49:37.649Z,23.90
2017-10-06T21:52:07.599Z,22.10
2017-10-06T21:54:36.965Z,21.70
2017-10-06T21:57:06.161Z,20.10
2017-10-06T21:59:35.504Z,19.30
2017-10-06T22:02:04.840Z,18.70
2017-10-06T22:04:34.266Z,20.00
2017-10-06T22:07:03.965Z,19.50
2017-10-06T22:09:33.642Z,19.60
2017-10-06T22:12:04.063Z,18.00
2017-10-06T22:14:34.098Z,18.50
2017-10-06T22:17:03.262Z,18.50
2017-10-06T22:19:32.286Z,19.00
2017-10-06T22:22:01.739Z,18.30
2017-10-06T22:24:31.082Z,18.60
2017-10-06T22:27:00.994Z,17.10
2017-10-06T22:29:31.109Z,18.00
2017-10-06T22:32:00.668Z,18.00
2017-10-06T22:34:30.219Z,16.80
2017-10-06T22:36:59.758Z,18.10
2017-10-06T22:39:28.888Z,17.60
2017-10-06T22:41:58.761Z,16.90
2017-10-06T22:44:29.092Z,16.90
2017-10-06T22:46:58.707Z,17.60
2017-10-06T22:49:27.885Z,17.90
2017-10-06T22:51:57.991Z,16.40
2017-10-06T22:54:28.140Z,17.20
2017-10-06T22:56:57.452Z,17.10
2017-10-06T22:59:26.881Z,16.70
2017-10-06T23:01:56.043Z,16.40
2017-10-06T23:04:32.795Z,16.60
2017-10-06T23:07:03.090Z,17.10
2017-10-06T23:09:32.637Z,17.10
2017-10-06T23:12:01.932Z,16.90
2017-10-06T23:14:33.181Z,16.40
2017-10-06T23:17:02.632Z,16.20
2017-10-06T23:19:31.926Z,16.00
2017-10-06T23:22:01.433Z,15.40
2017-10-06T23:24:30.654Z,16.30
2017-10-06T23:27:00.332Z,16.80
2017-10-06T23:29:30.066Z,16.20
2017-10-06T23:32:01.607Z,16.40
2017-10-06T23:34:30.977Z,16.50
2017-10-06T23:37:00.411Z,16.40
2017-10-06T23:39:29.788Z,17.10
2017-10-06T23:41:59.164Z,17.20
2017-10-06T23:44:28.682Z,17.00
2017-10-06T23:46:57.998Z,16.50
2017-10-06T23:49:27.307Z,17.30
2017-10-06T23:51:56.463Z,16.60
2017-10-06T23:54:26.000Z,17.10
2017-10-06T23:56:55.425Z,16.90
2017-10-06T23:59:24.763Z,17.50
